»·PEaware :: SWA884 KSAN-KSFO

SWA884 :: KSAN-KSFO

FLIGHT INFORMATION

Flight Status: Arrived
Operator:
Southwest Airlines
More flights by this operator :: More flights under this callsign
Pilot: Maximilliano F. (23467)
Aircraft: BOEING 737-800
(B738)
More flights by this aircraft type
Origin: KSAN San Diego Intl-Lindbergh
United States
Destination: KSFO San Francisco Intl
United States
More flights between these airports :: More routes between these airports
Route: PADRZ2 IKAYE RIZIN SPLNT STOKD SERFR SERFR3
File this flight plan on PilotEdge
Remarks: RMK / SIMBRIEF
Altitude:
(Current/Filed)
36,000ft
Speed:
(Current/Filed)
458kts
Departed: 12-Oct-19 05:36 PM
Arrived: 12-Oct-19 06:39 PM
Distance/Time
Traveled:
388nm/1:03
Distance/Time
To Go:
Arrived

Flight Plot

Page will automatically refresh every two minutes.

Flight plan parsing failed; only flown route is shown


Map Options




Map Legend


Flown Route
Filed Route
Departure Airport
Arrival Airport
Navaid (VOR, NDB)
Fix

Horizontal Profiles

Position Reports

Time Latitude Longitude Heading Altitude Ground
Speed
12-Oct-19 17:06 32.731852 -117.195861 247 21ft 0kts
12-Oct-19 17:07 32.731852 -117.195861 247 21ft 0kts
12-Oct-19 17:08 32.731852 -117.195861 247 21ft 0kts
12-Oct-19 17:09 32.731852 -117.195861 247 21ft 0kts
12-Oct-19 17:10 32.731852 -117.195861 247 21ft 0kts
12-Oct-19 17:11 32.731852 -117.195861 247 21ft 0kts
12-Oct-19 17:12 32.731852 -117.195861 247 21ft 0kts
12-Oct-19 17:13 32.731852 -117.195861 247 21ft 0kts
12-Oct-19 17:14 32.731852 -117.195861 247 21ft 0kts
12-Oct-19 17:15 32.731852 -117.195861 247 21ft 0kts
12-Oct-19 17:16 32.731852 -117.195861 247 21ft 0kts
12-Oct-19 17:18 32.731852 -117.195861 247 21ft 0kts
12-Oct-19 17:19 32.731852 -117.195861 247 21ft 0kts
12-Oct-19 17:20 32.731852 -117.195861 247 21ft 0kts
12-Oct-19 17:21 32.731852 -117.195861 247 21ft 0kts
12-Oct-19 17:22 32.731852 -117.195861 247 21ft 0kts
12-Oct-19 17:23 32.731853 -117.195861 247 21ft 0kts
12-Oct-19 17:24 32.731886 -117.195521 291 21ft 2kts
12-Oct-19 17:25 32.731615 -117.195250 344 21ft 0kts
12-Oct-19 17:26 32.731615 -117.195250 344 21ft 0kts
12-Oct-19 17:27 32.731615 -117.195250 344 21ft 0kts
12-Oct-19 17:28 32.732112 -117.194957 40 21ft 5kts
12-Oct-19 17:29 32.732877 -117.194397 30 21ft 0kts
12-Oct-19 17:30 32.733457 -117.193792 77 21ft 7kts
12-Oct-19 17:31 32.732432 -117.189277 108 20ft 17kts
12-Oct-19 17:32 32.731108 -117.183834 105 19ft 16kts
12-Oct-19 17:33 32.729950 -117.179051 106 21ft 12kts
12-Oct-19 17:34 32.729528 -117.176648 73 24ft 0kts
12-Oct-19 17:35 32.730297 -117.176242 291 25ft 15kts
12-Oct-19 17:35 32.738565 -117.211772 281 722ft 193kts
12-Oct-19 17:37 32.771201 -117.282778 305 3649ft 259kts
12-Oct-19 17:38 32.816509 -117.352465 308 7309ft 278kts
12-Oct-19 17:39 32.867228 -117.425382 305 10746ft 296kts
12-Oct-19 17:39 32.911485 -117.495700 307 13225ft 327kts
12-Oct-19 17:40 32.970487 -117.583793 305 14988ft 344kts
12-Oct-19 17:42 33.037877 -117.689129 304 17351ft 352kts
12-Oct-19 17:42 33.094170 -117.761075 316 19924ft 367kts
12-Oct-19 17:43 33.172575 -117.840183 316 22721ft 381kts
12-Oct-19 17:45 33.262587 -117.943771 311 25745ft 394kts
12-Oct-19 17:45 33.327908 -118.021753 310 27722ft 404kts
12-Oct-19 17:46 33.408095 -118.117674 310 29998ft 414kts
12-Oct-19 17:47 33.489788 -118.215645 309 32374ft 415kts
12-Oct-19 17:48 33.570226 -118.312394 308 34706ft 407kts
12-Oct-19 17:49 33.650714 -118.409580 308 35901ft 419kts
12-Oct-19 17:50 33.732656 -118.508598 308 35903ft 416kts
12-Oct-19 17:51 33.814370 -118.607776 308 35903ft 418kts
12-Oct-19 17:52 33.894094 -118.704807 307 35914ft 417kts
12-Oct-19 17:53 33.976102 -118.804996 307 35921ft 432kts
12-Oct-19 17:54 34.062930 -118.911132 308 35915ft 446kts
12-Oct-19 17:55 34.145928 -119.017875 300 35925ft 442kts
12-Oct-19 17:56 34.211540 -119.142888 296 35915ft 439kts
12-Oct-19 17:57 34.275959 -119.268066 296 35912ft 439kts
12-Oct-19 17:58 34.340467 -119.393835 296 35912ft 440kts
12-Oct-19 17:59 34.405536 -119.519825 301 35911ft 444kts
12-Oct-19 18:00 34.490727 -119.630409 309 35910ft 451kts
12-Oct-19 18:01 34.578091 -119.737880 308 35920ft 450kts
12-Oct-19 18:02 34.665807 -119.846238 308 35918ft 451kts
12-Oct-19 18:03 34.753475 -119.954897 308 35923ft 451kts
12-Oct-19 18:04 34.841188 -120.063937 308 35935ft 454kts
12-Oct-19 18:05 34.929462 -120.174024 308 35934ft 455kts
12-Oct-19 18:06 35.017618 -120.284332 309 35928ft 455kts
12-Oct-19 18:07 35.105737 -120.394004 311 35924ft 456kts
12-Oct-19 18:08 35.200105 -120.498610 312 35921ft 458kts
12-Oct-19 18:09 35.294218 -120.604316 312 35920ft 458kts
12-Oct-19 18:10 35.387017 -120.708897 312 35926ft 459kts
12-Oct-19 18:11 35.481074 -120.814999 314 35915ft 462kts
12-Oct-19 18:12 35.583585 -120.910994 317 35909ft 465kts
12-Oct-19 18:13 35.686778 -121.006903 318 35910ft 466kts
12-Oct-19 18:14 35.789877 -121.103057 318 35914ft 467kts
12-Oct-19 18:15 35.893416 -121.199913 318 35918ft 460kts
12-Oct-19 18:16 35.991025 -121.291550 318 35943ft 438kts
12-Oct-19 18:17 36.089443 -121.381455 323 35497ft 451kts
12-Oct-19 18:18 36.194787 -121.463216 324 32506ft 448kts
12-Oct-19 18:19 36.299646 -121.545274 324 29448ft 454kts
12-Oct-19 18:20 36.403611 -121.626805 325 26728ft 432kts
12-Oct-19 18:21 36.501621 -121.703949 324 24355ft 405kts
12-Oct-19 18:22 36.593423 -121.776682 325 21881ft 390kts
12-Oct-19 18:23 36.683200 -121.847807 325 19436ft 375kts
12-Oct-19 18:24 36.774557 -121.902790 343 17164ft 361kts
12-Oct-19 18:25 36.870057 -121.930080 346 15241ft 349kts
12-Oct-19 18:26 36.963679 -121.957437 342 13267ft 335kts
12-Oct-19 18:27 37.050413 -121.991473 342 11334ft 320kts
12-Oct-19 18:28 37.131413 -122.023092 342 10365ft 284kts
12-Oct-19 18:29 37.206138 -122.052348 342 9264ft 289kts
12-Oct-19 18:30 37.280294 -122.081421 341 8029ft 275kts
12-Oct-19 18:31 37.353489 -122.110296 341 6447ft 269kts
12-Oct-19 18:32 37.426331 -122.136458 344 4686ft 278kts
12-Oct-19 18:33 37.498081 -122.161005 343 3507ft 246kts
12-Oct-19 18:34 37.546635 -122.204528 300 2746ft 194kts
12-Oct-19 18:35 37.569831 -122.259029 297 1818ft 161kts
12-Oct-19 18:36 37.589557 -122.305762 297 982ft 143kts
12-Oct-19 18:37 37.607997 -122.349514 297 178ft 144kts
12-Oct-19 18:38 37.618961 -122.377920 268 29ft 23kts
12-Oct-19 18:39 37.615937 -122.380065 209 33ft 9kts
12-Oct-19 18:40 37.613266 -122.381871 207 34ft 23kts
12-Oct-19 18:41 37.611212 -122.386097 297 33ft 12kts
12-Oct-19 18:42 37.611421 -122.388648 34 31ft 4kts
12-Oct-19 18:43 37.612348 -122.388077 77 32ft 3kts
12-Oct-19 18:44 37.610778 -122.388663 208 30ft 11kts
12-Oct-19 18:45 37.610707 -122.390453 344 28ft 3kts
12-Oct-19 18:46 37.610906 -122.390470 38 29ft 1kts
12-Oct-19 18:47 37.611119 -122.390416 17 29ft 2kts
12-Oct-19 18:48 37.611244 -122.390314 36 30ft 0kts

Navigation Log

Ident Type
Flight plan parsing failed, navigation log unavailable